LTAG/ADF METAR and TAF weather

Enter ICAO airport designator
Station Type Date Time Source
LTAG METAR 2021/09/28 16:20 UTC NOAA

LTAG 281620Z 20007KT CAVOK 26/20 Q1009 NOSIG


Station Type Date Time Source
LTAG Decoded METAR 2021/09/28 16:20 UTC NOAA

Adana / Incirlik, Turkey (LTAG) 37-00N 035-25E 66M
Sep 28, 2021 - 12:20 PM EDT / 2021.09.28 1620 UTC
Wind: from the SSW (200 degrees) at 8 MPH (7 KT):0
Visibility: greater than 7 mile(s):0
Temperature: 78 F (26 C)
Dew Point: 68 F (20 C)
Relative Humidity: 69%
Pressure (altimeter): 29.80 in. Hg (1009 hPa)
ob: LTAG 281620Z 20007KT CAVOK 26/20 Q1009 NOSIG
cycle: 16

Station Type Date Time Source
LTAG TAF 2021/09/28 12:03 UTC NOAA

TAF TAF LTAG 281040Z 2812/2912 19012KT CAVOK
BECMG 2816/2818 VRB02KT
BECMG 2822/2824 SCT030

Example: see airport list